sensor_id;sensor_type;location;lat;lon;timestamp;P1;durP1;ratioP1;P2;durP2;ratioP2
37241;SDS011;23135;51.078;12.108;2022-11-20T00:00:08;23.23;;;10.18;;
37241;SDS011;23135;51.078;12.108;2022-11-20T00:02:34;27.35;;;11.38;;
37241;SDS011;23135;51.078;12.108;2022-11-20T00:05:00;27.27;;;10.20;;
37241;SDS011;23135;51.078;12.108;2022-11-20T00:07:25;31.13;;;10.70;;
37241;SDS011;23135;51.078;12.108;2022-11-20T00:09:51;31.20;;;12.45;;
37241;SDS011;23135;51.078;12.108;2022-11-20T00:12:17;26.08;;;10.73;;
37241;SDS011;23135;51.078;12.108;2022-11-20T00:14:42;24.40;;;10.00;;
37241;SDS011;23135;51.078;12.108;2022-11-20T00:17:08;22.38;;;9.55;;
37241;SDS011;23135;51.078;12.108;2022-11-20T00:19:34;27.02;;;11.52;;
37241;SDS011;23135;51.078;12.108;2022-11-20T00:21:59;24.73;;;10.25;;
37241;SDS011;23135;51.078;12.108;2022-11-20T00:24:25;22.30;;;9.57;;
37241;SDS011;23135;51.078;12.108;2022-11-20T00:26:50;29.23;;;9.13;;
37241;SDS011;23135;51.078;12.108;2022-11-20T00:29:16;27.67;;;8.35;;
37241;SDS011;23135;51.078;12.108;2022-11-20T00:31:42;27.70;;;10.25;;
37241;SDS011;23135;51.078;12.108;2022-11-20T00:34:08;23.20;;;10.07;;
37241;SDS011;23135;51.078;12.108;2022-11-20T00:36:34;22.50;;;9.80;;
37241;SDS011;23135;51.078;12.108;2022-11-20T00:39:00;25.35;;;9.93;;
37241;SDS011;23135;51.078;12.108;2022-11-20T00:41:26;28.60;;;11.52;;
37241;SDS011;23135;51.078;12.108;2022-11-20T00:43:53;27.55;;;11.27;;
37241;SDS011;23135;51.078;12.108;2022-11-20T00:46:22;27.13;;;10.50;;
37241;SDS011;23135;51.078;12.108;2022-11-20T00:48:49;26.08;;;10.55;;
37241;SDS011;23135;51.078;12.108;2022-11-20T00:51:19;27.13;;;9.45;;
37241;SDS011;23135;51.078;12.108;2022-11-20T00:53:46;45.83;;;12.27;;
37241;SDS011;23135;51.078;12.108;2022-11-20T00:56:14;24.27;;;9.63;;
37241;SDS011;23135;51.078;12.108;2022-11-20T00:58:42;26.92;;;9.80;;
37241;SDS011;23135;51.078;12.108;2022-11-20T01:01:10;29.05;;;11.20;;
37241;SDS011;23135;51.078;12.108;2022-11-20T01:03:44;24.15;;;9.88;;
37241;SDS011;23135;51.078;12.108;2022-11-20T01:06:12;21.63;;;9.05;;
37241;SDS011;23135;51.078;12.108;2022-11-20T01:08:39;35.05;;;12.32;;
37241;SDS011;23135;51.078;12.108;2022-11-20T01:11:07;32.63;;;11.88;;
37241;SDS011;23135;51.078;12.108;2022-11-20T01:13:35;24.02;;;10.23;;
37241;SDS011;23135;51.078;12.108;2022-11-20T01:16:08;31.08;;;11.75;;
37241;SDS011;23135;51.078;12.108;2022-11-20T01:18:43;27.23;;;10.40;;
37241;SDS011;23135;51.078;12.108;2022-11-20T01:21:11;30.52;;;11.38;;
37241;SDS011;23135;51.078;12.108;2022-11-20T01:23:39;32.95;;;12.95;;
37241;SDS011;23135;51.078;12.108;2022-11-20T01:26:07;24.02;;;9.55;;
37241;SDS011;23135;51.078;12.108;2022-11-20T01:28:35;27.00;;;10.98;;
37241;SDS011;23135;51.078;12.108;2022-11-20T01:31:10;27.30;;;11.18;;
37241;SDS011;23135;51.078;12.108;2022-11-20T01:33:39;33.80;;;11.77;;
37241;SDS011;23135;51.078;12.108;2022-11-20T01:36:06;29.17;;;11.20;;
37241;SDS011;23135;51.078;12.108;2022-11-20T01:38:32;28.05;;;12.73;;
37241;SDS011;23135;51.078;12.108;2022-11-20T01:40:58;33.38;;;12.35;;
37241;SDS011;23135;51.078;12.108;2022-11-20T01:43:24;26.95;;;10.35;;
37241;SDS011;23135;51.078;12.108;2022-11-20T01:54:09;31.13;;;11.65;;
37241;SDS011;23135;51.078;12.108;2022-11-20T01:56:40;34.75;;;12.13;;
37241;SDS011;23135;51.078;12.108;2022-11-20T01:59:09;34.53;;;11.73;;
37241;SDS011;23135;51.078;12.108;2022-11-20T02:01:38;26.13;;;11.85;;
37241;SDS011;23135;51.078;12.108;2022-11-20T02:04:04;27.33;;;10.68;;
37241;SDS011;23135;51.078;12.108;2022-11-20T02:09:32;29.15;;;10.73;;
37241;SDS011;23135;51.078;12.108;2022-11-20T02:11:57;35.15;;;13.20;;
37241;SDS011;23135;51.078;12.108;2022-11-20T02:14:24;35.42;;;13.52;;
37241;SDS011;23135;51.078;12.108;2022-11-20T02:16:51;31.35;;;12.32;;
37241;SDS011;23135;51.078;12.108;2022-11-20T02:19:22;33.15;;;12.88;;
37241;SDS011;23135;51.078;12.108;2022-11-20T02:24:50;34.67;;;13.65;;
37241;SDS011;23135;51.078;12.108;2022-11-20T02:27:16;31.63;;;12.40;;
37241;SDS011;23135;51.078;12.108;2022-11-20T02:29:52;36.08;;;13.40;;
37241;SDS011;23135;51.078;12.108;2022-11-20T02:32:29;35.50;;;13.02;;
37241;SDS011;23135;51.078;12.108;2022-11-20T02:34:57;32.75;;;12.52;;
37241;SDS011;23135;51.078;12.108;2022-11-20T02:37:23;32.75;;;12.70;;
37241;SDS011;23135;51.078;12.108;2022-11-20T02:39:56;30.10;;;12.40;;
37241;SDS011;23135;51.078;12.108;2022-11-20T02:42:22;34.50;;;12.55;;
37241;SDS011;23135;51.078;12.108;2022-11-20T02:44:47;33.25;;;12.38;;
37241;SDS011;23135;51.078;12.108;2022-11-20T02:47:13;37.78;;;13.07;;
37241;SDS011;23135;51.078;12.108;2022-11-20T02:49:38;34.00;;;12.98;;
37241;SDS011;23135;51.078;12.108;2022-11-20T02:52:04;25.98;;;11.10;;
37241;SDS011;23135;51.078;12.108;2022-11-20T02:54:29;32.25;;;12.50;;
37241;SDS011;23135;51.078;12.108;2022-11-20T02:56:55;36.05;;;11.57;;
37241;SDS011;23135;51.078;12.108;2022-11-20T02:59:21;29.45;;;10.70;;
37241;SDS011;23135;51.078;12.108;2022-11-20T03:01:47;33.80;;;12.68;;
37241;SDS011;23135;51.078;12.108;2022-11-20T03:04:12;35.65;;;14.73;;
37241;SDS011;23135;51.078;12.108;2022-11-20T03:06:38;40.67;;;13.48;;
37241;SDS011;23135;51.078;12.108;2022-11-20T03:09:03;37.47;;;14.00;;
37241;SDS011;23135;51.078;12.108;2022-11-20T03:11:29;35.90;;;13.30;;
37241;SDS011;23135;51.078;12.108;2022-11-20T03:13:55;38.75;;;14.10;;
37241;SDS011;23135;51.078;12.108;2022-11-20T03:16:21;34.85;;;13.20;;
37241;SDS011;23135;51.078;12.108;2022-11-20T03:18:47;36.55;;;12.73;;
37241;SDS011;23135;51.078;12.108;2022-11-20T03:21:14;30.60;;;11.73;;
37241;SDS011;23135;51.078;12.108;2022-11-20T03:23:40;34.65;;;13.80;;
37241;SDS011;23135;51.078;12.108;2022-11-20T03:28:42;26.10;;;9.63;;
37241;SDS011;23135;51.078;12.108;2022-11-20T03:31:13;30.73;;;12.23;;
37241;SDS011;23135;51.078;12.108;2022-11-20T03:33:40;28.17;;;11.32;;
37241;SDS011;23135;51.078;12.108;2022-11-20T03:36:11;29.83;;;12.63;;
37241;SDS011;23135;51.078;12.108;2022-11-20T03:38:38;29.48;;;10.98;;
37241;SDS011;23135;51.078;12.108;2022-11-20T03:41:09;26.33;;;9.65;;
37241;SDS011;23135;51.078;12.108;2022-11-20T03:43:48;28.67;;;10.75;;
37241;SDS011;23135;51.078;12.108;2022-11-20T03:46:15;23.95;;;10.02;;
37241;SDS011;23135;51.078;12.108;2022-11-20T03:48:41;28.73;;;10.18;;
37241;SDS011;23135;51.078;12.108;2022-11-20T03:51:10;33.17;;;12.18;;
37241;SDS011;23135;51.078;12.108;2022-11-20T03:53:38;28.65;;;11.50;;
37241;SDS011;23135;51.078;12.108;2022-11-20T03:56:05;39.42;;;11.60;;
37241;SDS011;23135;51.078;12.108;2022-11-20T03:58:32;28.92;;;10.55;;
37241;SDS011;23135;51.078;12.108;2022-11-20T04:01:10;33.83;;;13.32;;
37241;SDS011;23135;51.078;12.108;2022-11-20T04:03:41;46.78;;;15.63;;
37241;SDS011;23135;51.078;12.108;2022-11-20T04:06:08;42.40;;;14.80;;
37241;SDS011;23135;51.078;12.108;2022-11-20T04:08:38;38.38;;;13.90;;
37241;SDS011;23135;51.078;12.108;2022-11-20T04:11:11;45.53;;;14.27;;
37241;SDS011;23135;51.078;12.108;2022-11-20T04:14:02;35.83;;;13.50;;
37241;SDS011;23135;51.078;12.108;2022-11-20T04:16:31;37.08;;;13.02;;
37241;SDS011;23135;51.078;12.108;2022-11-20T04:18:59;42.33;;;13.70;;
37241;SDS011;23135;51.078;12.108;2022-11-20T04:21:26;35.60;;;11.63;;
37241;SDS011;23135;51.078;12.108;2022-11-20T04:23:53;30.17;;;11.45;;
37241;SDS011;23135;51.078;12.108;2022-11-20T04:26:19;31.83;;;11.93;;
37241;SDS011;23135;51.078;12.108;2022-11-20T04:28:46;37.10;;;12.43;;
37241;SDS011;23135;51.078;12.108;2022-11-20T04:31:13;37.33;;;12.65;;
37241;SDS011;23135;51.078;12.108;2022-11-20T04:33:40;36.35;;;12.68;;
37241;SDS011;23135;51.078;12.108;2022-11-20T04:36:07;40.88;;;12.93;;
37241;SDS011;23135;51.078;12.108;2022-11-20T04:38:37;32.13;;;11.70;;
37241;SDS011;23135;51.078;12.108;2022-11-20T04:41:04;36.42;;;12.60;;
37241;SDS011;23135;51.078;12.108;2022-11-20T04:43:31;31.77;;;12.13;;
37241;SDS011;23135;51.078;12.108;2022-11-20T04:45:57;31.63;;;12.00;;
37241;SDS011;23135;51.078;12.108;2022-11-20T04:48:24;33.22;;;13.27;;
37241;SDS011;23135;51.078;12.108;2022-11-20T04:50:51;29.73;;;11.63;;
37241;SDS011;23135;51.078;12.108;2022-11-20T04:53:17;29.45;;;11.43;;
37241;SDS011;23135;51.078;12.108;2022-11-20T04:55:44;35.67;;;13.27;;
37241;SDS011;23135;51.078;12.108;2022-11-20T04:58:09;30.17;;;11.10;;
37241;SDS011;23135;51.078;12.108;2022-11-20T05:00:35;35.53;;;10.85;;
37241;SDS011;23135;51.078;12.108;2022-11-20T05:03:01;33.47;;;11.55;;
37241;SDS011;23135;51.078;12.108;2022-11-20T05:05:26;31.42;;;10.63;;
37241;SDS011;23135;51.078;12.108;2022-11-20T05:07:52;24.83;;;8.05;;
37241;SDS011;23135;51.078;12.108;2022-11-20T05:10:18;29.77;;;12.07;;
37241;SDS011;23135;51.078;12.108;2022-11-20T05:12:43;29.60;;;10.55;;
37241;SDS011;23135;51.078;12.108;2022-11-20T05:15:09;28.00;;;9.73;;
37241;SDS011;23135;51.078;12.108;2022-11-20T05:17:35;30.02;;;11.65;;
37241;SDS011;23135;51.078;12.108;2022-11-20T05:20:00;32.53;;;9.77;;
37241;SDS011;23135;51.078;12.108;2022-11-20T05:22:26;32.78;;;12.10;;
37241;SDS011;23135;51.078;12.108;2022-11-20T05:24:51;25.60;;;9.35;;
37241;SDS011;23135;51.078;12.108;2022-11-20T05:27:17;27.85;;;10.10;;
37241;SDS011;23135;51.078;12.108;2022-11-20T05:29:43;31.88;;;11.32;;
37241;SDS011;23135;51.078;12.108;2022-11-20T05:32:08;26.77;;;10.80;;
37241;SDS011;23135;51.078;12.108;2022-11-20T05:34:34;35.45;;;13.10;;
37241;SDS011;23135;51.078;12.108;2022-11-20T05:37:00;28.27;;;9.80;;
37241;SDS011;23135;51.078;12.108;2022-11-20T05:39:26;28.73;;;11.05;;
37241;SDS011;23135;51.078;12.108;2022-11-20T05:41:52;30.20;;;10.68;;
37241;SDS011;23135;51.078;12.108;2022-11-20T05:44:38;32.13;;;10.65;;
37241;SDS011;23135;51.078;12.108;2022-11-20T05:47:04;28.45;;;10.93;;
37241;SDS011;23135;51.078;12.108;2022-11-20T05:49:29;32.90;;;10.02;;
37241;SDS011;23135;51.078;12.108;2022-11-20T05:51:55;30.88;;;10.15;;
37241;SDS011;23135;51.078;12.108;2022-11-20T05:54:20;26.33;;;10.90;;
37241;SDS011;23135;51.078;12.108;2022-11-20T05:56:46;26.80;;;10.70;;
37241;SDS011;23135;51.078;12.108;2022-11-20T05:59:12;27.40;;;10.52;;
37241;SDS011;23135;51.078;12.108;2022-11-20T06:01:37;25.70;;;10.30;;
37241;SDS011;23135;51.078;12.108;2022-11-20T06:04:03;28.42;;;10.25;;
37241;SDS011;23135;51.078;12.108;2022-11-20T06:06:28;29.10;;;11.48;;
37241;SDS011;23135;51.078;12.108;2022-11-20T06:08:54;30.13;;;10.88;;
37241;SDS011;23135;51.078;12.108;2022-11-20T06:11:20;28.63;;;10.27;;
37241;SDS011;23135;51.078;12.108;2022-11-20T06:13:46;25.20;;;10.85;;
37241;SDS011;23135;51.078;12.108;2022-11-20T06:16:14;29.33;;;10.25;;
37241;SDS011;23135;51.078;12.108;2022-11-20T06:18:42;28.90;;;9.05;;
37241;SDS011;23135;51.078;12.108;2022-11-20T06:21:08;26.52;;;8.90;;
37241;SDS011;23135;51.078;12.108;2022-11-20T06:23:36;27.98;;;11.02;;
37241;SDS011;23135;51.078;12.108;2022-11-20T06:26:03;28.73;;;10.60;;
37241;SDS011;23135;51.078;12.108;2022-11-20T06:28:32;31.67;;;10.48;;
37241;SDS011;23135;51.078;12.108;2022-11-20T06:30:58;24.98;;;10.05;;
37241;SDS011;23135;51.078;12.108;2022-11-20T06:33:24;29.73;;;10.60;;
37241;SDS011;23135;51.078;12.108;2022-11-20T06:35:50;32.17;;;10.82;;
37241;SDS011;23135;51.078;12.108;2022-11-20T06:38:16;30.63;;;9.68;;
37241;SDS011;23135;51.078;12.108;2022-11-20T06:40:42;34.88;;;11.18;;
37241;SDS011;23135;51.078;12.108;2022-11-20T06:43:11;31.38;;;12.48;;
37241;SDS011;23135;51.078;12.108;2022-11-20T06:45:36;24.55;;;8.68;;
37241;SDS011;23135;51.078;12.108;2022-11-20T06:48:02;31.65;;;10.35;;
37241;SDS011;23135;51.078;12.108;2022-11-20T06:50:28;29.85;;;11.43;;
37241;SDS011;23135;51.078;12.108;2022-11-20T06:52:54;28.85;;;10.80;;
37241;SDS011;23135;51.078;12.108;2022-11-20T06:55:19;23.98;;;9.80;;
37241;SDS011;23135;51.078;12.108;2022-11-20T06:57:45;29.52;;;11.52;;
37241;SDS011;23135;51.078;12.108;2022-11-20T07:00:11;28.40;;;10.73;;
37241;SDS011;23135;51.078;12.108;2022-11-20T07:02:37;34.33;;;11.43;;
37241;SDS011;23135;51.078;12.108;2022-11-20T07:05:02;31.48;;;9.75;;
37241;SDS011;23135;51.078;12.108;2022-11-20T07:07:28;26.42;;;10.68;;
37241;SDS011;23135;51.078;12.108;2022-11-20T07:09:54;29.55;;;11.45;;
37241;SDS011;23135;51.078;12.108;2022-11-20T07:12:20;28.30;;;10.55;;
37241;SDS011;23135;51.078;12.108;2022-11-20T07:14:46;28.95;;;9.73;;
37241;SDS011;23135;51.078;12.108;2022-11-20T07:17:12;29.67;;;10.43;;
37241;SDS011;23135;51.078;12.108;2022-11-20T07:19:37;29.25;;;11.32;;
37241;SDS011;23135;51.078;12.108;2022-11-20T07:22:03;28.90;;;10.60;;
37241;SDS011;23135;51.078;12.108;2022-11-20T07:24:29;31.90;;;10.00;;
37241;SDS011;23135;51.078;12.108;2022-11-20T07:26:54;31.40;;;10.63;;
37241;SDS011;23135;51.078;12.108;2022-11-20T07:29:20;28.75;;;10.02;;
37241;SDS011;23135;51.078;12.108;2022-11-20T07:31:45;21.65;;;9.43;;
37241;SDS011;23135;51.078;12.108;2022-11-20T07:34:11;31.48;;;9.82;;
37241;SDS011;23135;51.078;12.108;2022-11-20T07:36:36;34.10;;;11.25;;
37241;SDS011;23135;51.078;12.108;2022-11-20T07:39:02;28.05;;;10.48;;
37241;SDS011;23135;51.078;12.108;2022-11-20T07:41:28;25.10;;;9.27;;
37241;SDS011;23135;51.078;12.108;2022-11-20T07:43:54;25.20;;;10.40;;
37241;SDS011;23135;51.078;12.108;2022-11-20T07:46:19;32.17;;;9.60;;
37241;SDS011;23135;51.078;12.108;2022-11-20T07:48:45;31.20;;;10.88;;
37241;SDS011;23135;51.078;12.108;2022-11-20T07:51:10;30.27;;;11.15;;
37241;SDS011;23135;51.078;12.108;2022-11-20T07:53:36;28.58;;;11.00;;
37241;SDS011;23135;51.078;12.108;2022-11-20T07:56:02;27.77;;;10.30;;
37241;SDS011;23135;51.078;12.108;2022-11-20T07:58:28;31.15;;;11.10;;
37241;SDS011;23135;51.078;12.108;2022-11-20T08:00:54;32.72;;;11.23;;
37241;SDS011;23135;51.078;12.108;2022-11-20T08:03:20;26.02;;;9.82;;
37241;SDS011;23135;51.078;12.108;2022-11-20T08:05:46;31.27;;;11.43;;
37241;SDS011;23135;51.078;12.108;2022-11-20T08:08:11;35.90;;;14.80;;
37241;SDS011;23135;51.078;12.108;2022-11-20T08:10:37;33.22;;;13.73;;
37241;SDS011;23135;51.078;12.108;2022-11-20T08:13:03;34.05;;;13.65;;
37241;SDS011;23135;51.078;12.108;2022-11-20T08:15:50;36.80;;;13.00;;
37241;SDS011;23135;51.078;12.108;2022-11-20T08:18:16;34.22;;;14.30;;
37241;SDS011;23135;51.078;12.108;2022-11-20T08:20:43;33.15;;;13.63;;
37241;SDS011;23135;51.078;12.108;2022-11-20T08:23:08;34.83;;;13.15;;
37241;SDS011;23135;51.078;12.108;2022-11-20T08:25:35;36.25;;;14.10;;
37241;SDS011;23135;51.078;12.108;2022-11-20T08:28:02;32.38;;;13.48;;
37241;SDS011;23135;51.078;12.108;2022-11-20T08:30:30;35.70;;;14.10;;
37241;SDS011;23135;51.078;12.108;2022-11-20T08:33:00;35.10;;;12.95;;
37241;SDS011;23135;51.078;12.108;2022-11-20T08:35:27;28.60;;;12.13;;
37241;SDS011;23135;51.078;12.108;2022-11-20T08:37:52;45.30;;;17.55;;
37241;SDS011;23135;51.078;12.108;2022-11-20T08:40:18;24.90;;;12.13;;
37241;SDS011;23135;51.078;12.108;2022-11-20T08:42:50;29.48;;;11.90;;
37241;SDS011;23135;51.078;12.108;2022-11-20T08:45:16;25.40;;;10.15;;
37241;SDS011;23135;51.078;12.108;2022-11-20T08:47:43;25.02;;;9.82;;
37241;SDS011;23135;51.078;12.108;2022-11-20T08:50:10;16.60;;;6.78;;
37241;SDS011;23135;51.078;12.108;2022-11-20T08:52:37;21.23;;;8.57;;
37241;SDS011;23135;51.078;12.108;2022-11-20T08:55:04;24.48;;;10.35;;
37241;SDS011;23135;51.078;12.108;2022-11-20T08:57:31;19.00;;;8.88;;
37241;SDS011;23135;51.078;12.108;2022-11-20T08:59:57;22.02;;;10.00;;
37241;SDS011;23135;51.078;12.108;2022-11-20T09:02:23;16.58;;;6.47;;
37241;SDS011;23135;51.078;12.108;2022-11-20T09:04:49;14.20;;;5.85;;
37241;SDS011;23135;51.078;12.108;2022-11-20T09:07:15;18.25;;;6.28;;
37241;SDS011;23135;51.078;12.108;2022-11-20T09:09:40;14.43;;;6.50;;
37241;SDS011;23135;51.078;12.108;2022-11-20T09:12:06;15.88;;;7.28;;
37241;SDS011;23135;51.078;12.108;2022-11-20T09:14:31;14.68;;;6.72;;
37241;SDS011;23135;51.078;12.108;2022-11-20T09:16:58;15.60;;;6.07;;
37241;SDS011;23135;51.078;12.108;2022-11-20T09:19:24;16.77;;;7.07;;
37241;SDS011;23135;51.078;12.108;2022-11-20T09:21:50;19.08;;;6.97;;
37241;SDS011;23135;51.078;12.108;2022-11-20T09:24:16;17.75;;;6.25;;
37241;SDS011;23135;51.078;12.108;2022-11-20T09:26:42;16.13;;;7.82;;
37241;SDS011;23135;51.078;12.108;2022-11-20T09:29:08;15.63;;;7.38;;
37241;SDS011;23135;51.078;12.108;2022-11-20T09:31:33;16.35;;;6.88;;
37241;SDS011;23135;51.078;12.108;2022-11-20T09:33:59;18.08;;;8.27;;
37241;SDS011;23135;51.078;12.108;2022-11-20T09:36:24;20.30;;;8.80;;
37241;SDS011;23135;51.078;12.108;2022-11-20T09:38:51;28.20;;;10.63;;
37241;SDS011;23135;51.078;12.108;2022-11-20T09:46:28;19.58;;;7.07;;
37241;SDS011;23135;51.078;12.108;2022-11-20T09:49:11;16.30;;;7.63;;
37241;SDS011;23135;51.078;12.108;2022-11-20T09:51:48;19.35;;;8.50;;
37241;SDS011;23135;51.078;12.108;2022-11-20T09:54:56;19.40;;;8.35;;
37241;SDS011;23135;51.078;12.108;2022-11-20T09:57:19;17.40;;;8.27;;
37241;SDS011;23135;51.078;12.108;2022-11-20T09:59:51;21.05;;;7.90;;
37241;SDS011;23135;51.078;12.108;2022-11-20T10:02:28;18.05;;;6.85;;
37241;SDS011;23135;51.078;12.108;2022-11-20T10:05:01;18.52;;;8.48;;
37241;SDS011;23135;51.078;12.108;2022-11-20T10:07:55;22.92;;;10.60;;
37241;SDS011;23135;51.078;12.108;2022-11-20T10:24:23;21.15;;;8.15;;
37241;SDS011;23135;51.078;12.108;2022-11-20T10:29:44;20.80;;;9.75;;
37241;SDS011;23135;51.078;12.108;2022-11-20T10:32:26;22.27;;;9.73;;
37241;SDS011;23135;51.078;12.108;2022-11-20T10:35:01;27.48;;;11.68;;
37241;SDS011;23135;51.078;12.108;2022-11-20T10:37:29;26.27;;;10.10;;
37241;SDS011;23135;51.078;12.108;2022-11-20T10:47:50;23.38;;;9.25;;
37241;SDS011;23135;51.078;12.108;2022-11-20T10:50:20;20.38;;;9.07;;
37241;SDS011;23135;51.078;12.108;2022-11-20T10:55:50;14.90;;;6.20;;
37241;SDS011;23135;51.078;12.108;2022-11-20T11:01:05;17.13;;;6.80;;
37241;SDS011;23135;51.078;12.108;2022-11-20T11:03:41;11.48;;;5.10;;
37241;SDS011;23135;51.078;12.108;2022-11-20T11:06:15;9.27;;;4.10;;
37241;SDS011;23135;51.078;12.108;2022-11-20T11:08:43;11.27;;;4.93;;
37241;SDS011;23135;51.078;12.108;2022-11-20T11:11:18;9.68;;;4.38;;
37241;SDS011;23135;51.078;12.108;2022-11-20T11:13:47;11.82;;;5.22;;
37241;SDS011;23135;51.078;12.108;2022-11-20T11:16:21;13.65;;;5.13;;
37241;SDS011;23135;51.078;12.108;2022-11-20T11:18:49;11.98;;;5.65;;
37241;SDS011;23135;51.078;12.108;2022-11-20T11:21:21;9.82;;;4.63;;
37241;SDS011;23135;51.078;12.108;2022-11-20T11:23:56;11.27;;;5.00;;
37241;SDS011;23135;51.078;12.108;2022-11-20T11:26:24;20.80;;;5.18;;
37241;SDS011;23135;51.078;12.108;2022-11-20T11:28:57;6.13;;;3.33;;
37241;SDS011;23135;51.078;12.108;2022-11-20T11:31:31;9.40;;;4.38;;
37241;SDS011;23135;51.078;12.108;2022-11-20T11:34:05;12.90;;;5.32;;
37241;SDS011;23135;51.078;12.108;2022-11-20T11:36:42;15.88;;;6.20;;
37241;SDS011;23135;51.078;12.108;2022-11-20T11:39:19;15.13;;;5.97;;
37241;SDS011;23135;51.078;12.108;2022-11-20T11:41:46;11.82;;;4.60;;
37241;SDS011;23135;51.078;12.108;2022-11-20T11:44:30;12.35;;;6.50;;
37241;SDS011;23135;51.078;12.108;2022-11-20T11:47:26;13.60;;;5.65;;
37241;SDS011;23135;51.078;12.108;2022-11-20T11:50:15;14.60;;;7.35;;
37241;SDS011;23135;51.078;12.108;2022-11-20T12:01:02;15.77;;;6.75;;
37241;SDS011;23135;51.078;12.108;2022-11-20T12:03:38;20.17;;;7.43;;
37241;SDS011;23135;51.078;12.108;2022-11-20T12:06:11;14.30;;;5.00;;
37241;SDS011;23135;51.078;12.108;2022-11-20T12:08:44;12.93;;;5.45;;
37241;SDS011;23135;51.078;12.108;2022-11-20T12:16:23;14.95;;;5.82;;
37241;SDS011;23135;51.078;12.108;2022-11-20T12:18:49;11.57;;;6.28;;
37241;SDS011;23135;51.078;12.108;2022-11-20T12:21:18;14.80;;;6.03;;
37241;SDS011;23135;51.078;12.108;2022-11-20T12:40:28;13.55;;;5.05;;
37241;SDS011;23135;51.078;12.108;2022-11-20T12:46:08;18.98;;;6.60;;
37241;SDS011;23135;51.078;12.108;2022-11-20T12:49:19;15.63;;;7.97;;
37241;SDS011;23135;51.078;12.108;2022-11-20T12:57:00;13.77;;;5.57;;
37241;SDS011;23135;51.078;12.108;2022-11-20T13:07:42;11.23;;;5.55;;
37241;SDS011;23135;51.078;12.108;2022-11-20T13:10:13;15.43;;;7.47;;
37241;SDS011;23135;51.078;12.108;2022-11-20T13:12:46;19.55;;;7.85;;
37241;SDS011;23135;51.078;12.108;2022-11-20T13:15:22;15.48;;;6.88;;
37241;SDS011;23135;51.078;12.108;2022-11-20T13:18:28;12.95;;;6.15;;
37241;SDS011;23135;51.078;12.108;2022-11-20T13:21:12;12.85;;;6.40;;
37241;SDS011;23135;51.078;12.108;2022-11-20T13:24:19;13.10;;;5.07;;
37241;SDS011;23135;51.078;12.108;2022-11-20T13:26:48;14.27;;;5.78;;
37241;SDS011;23135;51.078;12.108;2022-11-20T13:29:33;12.60;;;6.38;;
37241;SDS011;23135;51.078;12.108;2022-11-20T13:32:18;15.48;;;6.05;;
37241;SDS011;23135;51.078;12.108;2022-11-20T13:34:53;14.60;;;7.10;;
37241;SDS011;23135;51.078;12.108;2022-11-20T13:37:28;17.17;;;6.55;;
37241;SDS011;23135;51.078;12.108;2022-11-20T13:42:35;14.27;;;6.70;;
37241;SDS011;23135;51.078;12.108;2022-11-20T13:45:08;14.38;;;7.22;;
37241;SDS011;23135;51.078;12.108;2022-11-20T13:47:55;13.35;;;7.25;;
37241;SDS011;23135;51.078;12.108;2022-11-20T13:56:16;16.65;;;6.47;;
37241;SDS011;23135;51.078;12.108;2022-11-20T13:59:02;17.30;;;7.32;;
37241;SDS011;23135;51.078;12.108;2022-11-20T14:01:49;15.63;;;7.20;;
37241;SDS011;23135;51.078;12.108;2022-11-20T14:04:15;12.90;;;6.28;;
37241;SDS011;23135;51.078;12.108;2022-11-20T14:06:45;16.65;;;6.93;;
37241;SDS011;23135;51.078;12.108;2022-11-20T14:09:13;17.40;;;9.07;;
37241;SDS011;23135;51.078;12.108;2022-11-20T14:11:56;17.15;;;8.77;;
37241;SDS011;23135;51.078;12.108;2022-11-20T14:14:23;18.73;;;7.75;;
37241;SDS011;23135;51.078;12.108;2022-11-20T14:16:53;11.27;;;4.93;;
37241;SDS011;23135;51.078;12.108;2022-11-20T14:19:30;15.35;;;7.43;;
37241;SDS011;23135;51.078;12.108;2022-11-20T14:27:43;16.05;;;6.72;;
37241;SDS011;23135;51.078;12.108;2022-11-20T14:30:17;14.82;;;6.38;;
37241;SDS011;23135;51.078;12.108;2022-11-20T14:32:46;14.68;;;6.35;;
37241;SDS011;23135;51.078;12.108;2022-11-20T14:35:24;15.80;;;6.57;;
37241;SDS011;23135;51.078;12.108;2022-11-20T14:37:51;16.67;;;7.22;;
37241;SDS011;23135;51.078;12.108;2022-11-20T14:40:25;15.02;;;6.97;;
37241;SDS011;23135;51.078;12.108;2022-11-20T14:42:56;16.27;;;6.40;;
37241;SDS011;23135;51.078;12.108;2022-11-20T14:45:23;14.60;;;6.47;;
37241;SDS011;23135;51.078;12.108;2022-11-20T14:47:50;16.00;;;6.93;;
37241;SDS011;23135;51.078;12.108;2022-11-20T14:50:23;14.07;;;6.78;;
37241;SDS011;23135;51.078;12.108;2022-11-20T14:52:54;11.23;;;6.18;;
37241;SDS011;23135;51.078;12.108;2022-11-20T14:55:28;13.70;;;5.60;;
37241;SDS011;23135;51.078;12.108;2022-11-20T14:58:05;20.27;;;6.78;;
37241;SDS011;23135;51.078;12.108;2022-11-20T15:00:52;16.52;;;6.85;;
37241;SDS011;23135;51.078;12.108;2022-11-20T15:03:40;14.48;;;5.22;;
37241;SDS011;23135;51.078;12.108;2022-11-20T15:06:06;14.93;;;5.88;;
37241;SDS011;23135;51.078;12.108;2022-11-20T15:08:35;18.13;;;7.78;;
37241;SDS011;23135;51.078;12.108;2022-11-20T15:11:01;14.63;;;5.03;;
37241;SDS011;23135;51.078;12.108;2022-11-20T15:13:37;19.27;;;8.30;;
37241;SDS011;23135;51.078;12.108;2022-11-20T15:16:08;12.60;;;6.03;;
37241;SDS011;23135;51.078;12.108;2022-11-20T15:18:45;18.58;;;8.30;;
37241;SDS011;23135;51.078;12.108;2022-11-20T15:21:13;22.13;;;9.23;;
37241;SDS011;23135;51.078;12.108;2022-11-20T15:23:39;21.10;;;7.50;;
37241;SDS011;23135;51.078;12.108;2022-11-20T15:26:06;17.88;;;8.02;;
37241;SDS011;23135;51.078;12.108;2022-11-20T15:31:02;16.13;;;6.93;;
37241;SDS011;23135;51.078;12.108;2022-11-20T15:33:29;18.42;;;6.78;;
37241;SDS011;23135;51.078;12.108;2022-11-20T15:35:56;20.63;;;9.20;;
37241;SDS011;23135;51.078;12.108;2022-11-20T15:38:21;21.73;;;9.07;;
37241;SDS011;23135;51.078;12.108;2022-11-20T15:40:47;27.25;;;11.15;;
37241;SDS011;23135;51.078;12.108;2022-11-20T15:43:13;23.70;;;9.02;;
37241;SDS011;23135;51.078;12.108;2022-11-20T15:48:44;13.35;;;6.07;;
37241;SDS011;23135;51.078;12.108;2022-11-20T15:53:59;23.70;;;10.35;;
37241;SDS011;23135;51.078;12.108;2022-11-20T15:56:25;23.10;;;10.23;;
37241;SDS011;23135;51.078;12.108;2022-11-20T15:58:51;21.58;;;10.18;;
37241;SDS011;23135;51.078;12.108;2022-11-20T16:01:18;24.90;;;8.68;;
37241;SDS011;23135;51.078;12.108;2022-11-20T16:03:46;24.17;;;10.68;;
37241;SDS011;23135;51.078;12.108;2022-11-20T16:06:12;21.05;;;8.85;;
37241;SDS011;23135;51.078;12.108;2022-11-20T16:08:37;19.20;;;8.88;;
37241;SDS011;23135;51.078;12.108;2022-11-20T16:11:03;17.88;;;8.68;;
37241;SDS011;23135;51.078;12.108;2022-11-20T16:13:30;22.58;;;9.82;;
37241;SDS011;23135;51.078;12.108;2022-11-20T16:16:26;25.45;;;10.30;;
37241;SDS011;23135;51.078;12.108;2022-11-20T16:18:53;19.35;;;8.68;;
37241;SDS011;23135;51.078;12.108;2022-11-20T16:21:19;22.08;;;9.02;;
37241;SDS011;23135;51.078;12.108;2022-11-20T16:23:45;24.67;;;10.60;;
37241;SDS011;23135;51.078;12.108;2022-11-20T16:26:15;22.48;;;9.65;;